Terminal Aerodrome Forecast
Issued by NWS Tulsa, OK

Current Version | Previous Version | Text Only | Print | Product List | Glossary On
Versions: 1 2 3 4 5 6 7 8 9 10 11 12 13 14 15 16 17
078
FTUS44 KTSA 221720
TAFFSM
TAF
KFSM 221720Z 2218/2318 32007KT P6SM SCT018 BKN060
     FM222100 33011KT P6SM FEW250
     FM230100 VRB02KT P6SM SKC
     FM231500 29005KT P6SM SKC=

USA.gov is the U.S. government's official web portal to all federal, state and local government web resources and services.